Time;durP1;ratioP1;P1;durP2;ratioP2;P2;SDS_P1;SDS_P2;PMS_P1;PMS_P2;Temp;Humidity;BMP_temperature;BMP_pressure;BME280_temperature;BME280_humidity;BME280_pressure;Samples;Min_cycle;Max_cycle;Signal;HPM_P1;HPM_P2
2023/12/16 00:01:28;;;;;;;17.67;8.33;;;;;;;;;;5076927;28;20211;-75
2023/12/16 00:03:54;;;;;;;19.70;9.07;;;;;;;;;;5079603;28;20708;-75
2023/12/16 00:06:20;;;;;;;17.33;7.70;;;;;;;;;;5077927;28;20634;-76
2023/12/16 00:08:47;;;;;;;20.97;7.87;;;;;;;;;;5078881;28;20230;-76
2023/12/16 00:11:13;;;;;;;22.57;8.83;;;;;;;;;;5077791;28;20285;-75
2023/12/16 00:13:39;;;;;;;16.37;7.73;;;;;;;;;;5075832;28;20633;-76
2023/12/16 00:16:05;;;;;;;21.87;9.67;;;;;;;;;;5082108;28;20768;-75
2023/12/16 00:18:32;;;;;;;22.43;8.50;;;;;;;;;;5078222;28;20211;-74
2023/12/16 00:20:58;;;;;;;15.57;7.50;;;;;;;;;;5081478;28;20175;-73
2023/12/16 00:23:24;;;;;;;23.60;7.97;;;;;;;;;;5061999;28;20175;-75
2023/12/16 00:25:50;;;;;;;18.83;8.53;;;;;;;;;;5078716;28;20211;-74
2023/12/16 00:28:17;;;;;;;27.17;9.20;;;;;;;;;;5078073;28;20685;-74
2023/12/16 00:30:43;;;;;;;21.73;8.60;;;;;;;;;;5077461;28;20819;-75
2023/12/16 00:33:09;;;;;;;27.40;9.40;;;;;;;;;;5080317;28;20210;-75
2023/12/16 00:35:36;;;;;;;24.13;9.37;;;;;;;;;;5079891;28;20240;-75
2023/12/16 00:38:02;;;;;;;24.53;9.87;;;;;;;;;;5073490;28;20206;-75
2023/12/16 00:40:28;;;;;;;17.23;7.57;;;;;;;;;;5076435;28;20917;-74
2023/12/16 00:42:54;;;;;;;24.30;9.47;;;;;;;;;;5080668;28;20214;-74
2023/12/16 00:45:20;;;;;;;25.67;10.00;;;;;;;;;;5076754;28;20210;-75
2023/12/16 00:47:46;;;;;;;23.97;9.93;;;;;;;;;;5079966;28;20672;-75
2023/12/16 00:50:12;;;;;;;17.23;8.60;;;;;;;;;;5077552;28;20209;-75
2023/12/16 00:52:38;;;;;;;20.53;9.10;;;;;;;;;;5075176;28;20639;-74
2023/12/16 00:55:05;;;;;;;22.60;7.90;;;;;;;;;;5079574;28;20670;-75
2023/12/16 00:57:31;;;;;;;23.90;9.17;;;;;;;;;;5076888;28;20275;-75
2023/12/16 00:59:58;;;;;;;22.67;9.57;;;;;;;;;;5080638;28;20181;-74
2023/12/16 01:02:24;;;;;;;24.10;8.87;;;;;;;;;;5078176;28;20175;-76
2023/12/16 01:04:51;;;;;;;19.50;9.60;;;;;;;;;;5077424;28;20205;-75
2023/12/16 01:07:17;;;;;;;26.90;9.10;;;;;;;;;;5078297;28;20227;-74
2023/12/16 01:09:43;;;;;;;17.17;8.83;;;;;;;;;;5078054;28;20205;-75
2023/12/16 01:12:09;;;;;;;20.80;8.90;;;;;;;;;;5077103;28;20185;-73
2023/12/16 01:14:35;;;;;;;27.77;9.13;;;;;;;;;;5078330;28;20243;-75
2023/12/16 01:17:01;;;;;;;24.43;9.23;;;;;;;;;;5082334;28;20222;-74
2023/12/16 01:19:27;;;;;;;21.63;8.73;;;;;;;;;;5081346;28;20206;-74
2023/12/16 01:21:53;;;;;;;23.00;8.10;;;;;;;;;;5083381;28;20206;-76
2023/12/16 01:24:19;;;;;;;25.97;8.87;;;;;;;;;;5080498;28;20722;-75
2023/12/16 01:26:45;;;;;;;21.93;9.10;;;;;;;;;;5082987;28;20206;-75
2023/12/16 01:29:11;;;;;;;18.67;8.50;;;;;;;;;;5081581;28;20202;-74
2023/12/16 01:31:37;;;;;;;16.50;7.47;;;;;;;;;;5080880;28;20199;-72
2023/12/16 01:34:03;;;;;;;20.90;8.13;;;;;;;;;;5085802;28;20258;-75
2023/12/16 01:36:30;;;;;;;25.67;8.90;;;;;;;;;;5080036;28;20772;-74
2023/12/16 01:38:56;;;;;;;25.17;9.70;;;;;;;;;;5074943;28;20261;-75
2023/12/16 01:41:22;;;;;;;23.90;8.33;;;;;;;;;;5079565;28;20294;-75
2023/12/16 01:43:48;;;;;;;19.63;8.93;;;;;;;;;;5080708;28;20678;-75
2023/12/16 01:46:14;;;;;;;20.83;8.60;;;;;;;;;;5081182;28;20211;-75
2023/12/16 01:48:41;;;;;;;24.57;8.80;;;;;;;;;;5085719;28;20214;-75
2023/12/16 01:51:08;;;;;;;18.83;7.27;;;;;;;;;;5081528;28;20175;-76
2023/12/16 01:53:35;;;;;;;14.80;7.57;;;;;;;;;;5062881;28;20201;-76
2023/12/16 01:56:01;;;;;;;21.50;8.87;;;;;;;;;;5081028;28;20203;-74
2023/12/16 01:58:27;;;;;;;21.43;8.13;;;;;;;;;;5081592;28;20248;-75
2023/12/16 02:00:53;;;;;;;13.47;7.60;;;;;;;;;;5081671;28;20206;-75
2023/12/16 02:03:20;;;;;;;18.70;8.23;;;;;;;;;;5061667;28;20268;-75
2023/12/16 02:05:46;;;;;;;22.63;7.53;;;;;;;;;;5082184;28;20198;-75
2023/12/16 02:08:12;;;;;;;21.07;7.47;;;;;;;;;;5076602;28;20223;-75
2023/12/16 02:10:38;;;;;;;21.50;7.77;;;;;;;;;;5080185;28;20210;-75
2023/12/16 02:13:05;;;;;;;20.80;7.17;;;;;;;;;;5083143;28;20853;-75
2023/12/16 02:15:31;;;;;;;19.73;7.67;;;;;;;;;;5080693;28;20206;-75
2023/12/16 02:17:57;;;;;;;18.03;7.40;;;;;;;;;;5077604;28;20183;-74
2023/12/16 02:20:23;;;;;;;18.27;8.70;;;;;;;;;;5081251;28;20179;-74
2023/12/16 02:22:49;;;;;;;20.83;8.00;;;;;;;;;;5086450;28;20210;-74
2023/12/16 02:25:16;;;;;;;19.33;8.93;;;;;;;;;;5080009;28;20213;-75
2023/12/16 02:27:42;;;;;;;22.77;8.00;;;;;;;;;;5081234;28;20223;-75
2023/12/16 02:30:09;;;;;;;15.87;7.63;;;;;;;;;;5062608;28;20186;-73
2023/12/16 02:32:35;;;;;;;21.97;7.07;;;;;;;;;;5081944;28;20233;-74
2023/12/16 02:35:01;;;;;;;20.47;7.57;;;;;;;;;;5082561;28;20716;-75
2023/12/16 02:37:27;;;;;;;18.77;8.30;;;;;;;;;;5079068;28;20207;-74
2023/12/16 02:39:53;;;;;;;23.97;8.57;;;;;;;;;;5076251;28;20206;-75
2023/12/16 02:42:19;;;;;;;20.03;8.10;;;;;;;;;;5079937;28;20217;-74
2023/12/16 02:44:45;;;;;;;19.83;7.90;;;;;;;;;;5077730;28;20171;-75
2023/12/16 02:47:11;;;;;;;15.30;7.73;;;;;;;;;;5081715;28;20221;-75
2023/12/16 02:49:37;;;;;;;19.50;8.60;;;;;;;;;;5078823;28;20290;-72
2023/12/16 02:52:03;;;;;;;22.53;7.90;;;;;;;;;;5079954;28;20285;-76
2023/12/16 02:54:29;;;;;;;22.37;8.23;;;;;;;;;;5060568;28;20214;-75
2023/12/16 02:56:55;;;;;;;18.23;8.23;;;;;;;;;;5081328;28;20202;-75
2023/12/16 02:59:21;;;;;;;21.70;8.33;;;;;;;;;;5079594;28;20668;-75
2023/12/16 03:01:47;;;;;;;17.47;8.90;;;;;;;;;;5070420;28;20278;-74
2023/12/16 03:04:13;;;;;;;26.07;8.53;;;;;;;;;;5079048;28;20198;-76
2023/12/16 03:06:46;;;;;;;24.20;9.40;;;;;;;;;;5078573;28;20264;-74
2023/12/16 03:09:12;;;;;;;16.23;7.93;;;;;;;;;;5079572;28;20258;-74
2023/12/16 03:11:39;;;;;;;26.70;9.57;;;;;;;;;;5079287;28;20565;-75
2023/12/16 03:14:05;;;;;;;20.47;7.70;;;;;;;;;;5080337;28;20235;-75
2023/12/16 03:16:34;;;;;;;25.47;8.53;;;;;;;;;;5077384;28;20214;-75
2023/12/16 03:19:00;;;;;;;19.97;9.27;;;;;;;;;;5082212;28;20209;-73
2023/12/16 03:21:26;;;;;;;31.97;11.67;;;;;;;;;;5063898;28;20648;-74
2023/12/16 03:23:52;;;;;;;22.67;10.40;;;;;;;;;;5079531;28;20253;-76
2023/12/16 03:26:20;;;;;;;24.60;9.73;;;;;;;;;;5079412;28;20313;-74
2023/12/16 03:28:46;;;;;;;20.50;9.47;;;;;;;;;;5080437;28;20210;-75
2023/12/16 03:31:12;;;;;;;20.67;8.87;;;;;;;;;;5079062;28;20206;-76
2023/12/16 03:33:38;;;;;;;22.50;11.23;;;;;;;;;;5077832;28;20643;-75
2023/12/16 03:36:04;;;;;;;22.90;9.83;;;;;;;;;;5078800;28;20199;-76
2023/12/16 03:38:31;;;;;;;24.83;11.03;;;;;;;;;;5072262;28;20650;-75
2023/12/16 03:40:57;;;;;;;27.10;10.60;;;;;;;;;;5082206;28;20228;-74
2023/12/16 03:43:23;;;;;;;26.10;10.03;;;;;;;;;;5077772;28;20676;-75
2023/12/16 03:45:49;;;;;;;25.77;9.97;;;;;;;;;;5081601;28;20222;-75
2023/12/16 03:48:15;;;;;;;24.57;10.27;;;;;;;;;;5079530;28;20233;-75
2023/12/16 03:50:41;;;;;;;25.97;11.07;;;;;;;;;;5078409;28;20262;-74
2023/12/16 03:53:07;;;;;;;27.20;11.37;;;;;;;;;;5070593;28;20208;-74
2023/12/16 03:55:33;;;;;;;29.10;12.03;;;;;;;;;;5079381;28;20307;-74
2023/12/16 03:57:59;;;;;;;25.87;11.47;;;;;;;;;;5065167;28;20234;-74
2023/12/16 04:00:25;;;;;;;24.30;11.53;;;;;;;;;;5070187;28;21167;-74
2023/12/16 04:02:51;;;;;;;21.80;10.90;;;;;;;;;;5077727;28;20171;-74
2023/12/16 04:05:17;;;;;;;29.53;11.27;;;;;;;;;;5081097;28;20206;-76
2023/12/16 04:07:43;;;;;;;28.80;11.30;;;;;;;;;;5077358;28;20233;-75
2023/12/16 04:10:10;;;;;;;21.37;9.93;;;;;;;;;;5079987;28;20268;-74
2023/12/16 04:12:36;;;;;;;25.00;11.50;;;;;;;;;;5073250;28;20211;-75
2023/12/16 04:15:02;;;;;;;29.90;10.30;;;;;;;;;;5075084;28;20175;-74
2023/12/16 04:17:28;;;;;;;28.00;11.67;;;;;;;;;;5080110;28;20241;-74
2023/12/16 04:19:54;;;;;;;21.13;10.80;;;;;;;;;;5074686;28;20214;-74
2023/12/16 04:22:21;;;;;;;33.13;11.43;;;;;;;;;;5082330;28;20210;-75
2023/12/16 04:24:57;;;;;;;25.80;10.30;;;;;;;;;;5073454;28;20210;-73
2023/12/16 04:27:23;;;;;;;24.63;11.07;;;;;;;;;;5078093;28;20224;-74
2023/12/16 04:29:49;;;;;;;24.80;10.93;;;;;;;;;;5080160;28;20195;-74
2023/12/16 04:32:15;;;;;;;17.57;10.20;;;;;;;;;;5072949;28;20217;-75
2023/12/16 04:34:41;;;;;;;26.03;11.53;;;;;;;;;;5079251;28;20210;-74
2023/12/16 04:37:07;;;;;;;19.27;10.37;;;;;;;;;;5074578;28;20232;-73
2023/12/16 04:39:33;;;;;;;24.40;11.67;;;;;;;;;;5074086;28;20206;-74
2023/12/16 04:41:59;;;;;;;24.10;10.67;;;;;;;;;;5076961;28;20266;-74
2023/12/16 04:44:25;;;;;;;23.27;10.43;;;;;;;;;;5074271;28;20186;-74
2023/12/16 04:46:51;;;;;;;23.60;10.50;;;;;;;;;;5073555;28;20206;-74
2023/12/16 04:49:17;;;;;;;26.43;11.30;;;;;;;;;;5080077;28;20205;-73
2023/12/16 04:51:43;;;;;;;36.23;12.87;;;;;;;;;;5071874;28;20272;-75
2023/12/16 04:54:09;;;;;;;23.83;11.23;;;;;;;;;;5075575;28;20183;-74
2023/12/16 04:56:35;;;;;;;24.60;10.43;;;;;;;;;;5075277;28;20698;-75
2023/12/16 04:59:01;;;;;;;22.93;10.00;;;;;;;;;;5075162;28;20267;-74
2023/12/16 05:01:27;;;;;;;31.77;13.55;;;;;;;;;;5072867;28;20470;-74
2023/12/16 05:03:53;;;;;;;30.80;11.43;;;;;;;;;;5074655;28;20266;-75
2023/12/16 05:06:19;;;;;;;22.77;10.40;;;;;;;;;;5075999;28;20211;-75
2023/12/16 05:08:45;;;;;;;25.87;11.37;;;;;;;;;;5076515;28;20194;-75
2023/12/16 05:11:11;;;;;;;23.97;10.97;;;;;;;;;;5059003;28;20251;-76
2023/12/16 05:13:37;;;;;;;24.23;10.57;;;;;;;;;;5073129;28;20239;-73
2023/12/16 05:16:03;;;;;;;26.90;10.20;;;;;;;;;;5074998;28;20688;-75
2023/12/16 05:18:29;;;;;;;21.30;9.90;;;;;;;;;;5075057;28;20214;-75
2023/12/16 05:20:55;;;;;;;18.27;9.47;;;;;;;;;;5077056;28;20650;-74
2023/12/16 05:23:21;;;;;;;25.00;9.87;;;;;;;;;;5069298;28;20278;-74
2023/12/16 05:25:47;;;;;;;18.40;9.83;;;;;;;;;;5072512;28;20570;-74
2023/12/16 05:28:13;;;;;;;23.53;9.97;;;;;;;;;;5077432;28;20272;-75
2023/12/16 05:30:39;;;;;;;21.83;10.70;;;;;;;;;;5068926;28;20234;-74
2023/12/16 05:33:05;;;;;;;26.70;10.73;;;;;;;;;;5073084;28;20603;-76
2023/12/16 05:35:32;;;;;;;22.63;9.57;;;;;;;;;;5078935;28;20183;-75
2023/12/16 05:37:58;;;;;;;26.00;10.20;;;;;;;;;;5070879;28;20282;-74
2023/12/16 05:40:24;;;;;;;20.37;9.53;;;;;;;;;;5076563;28;20210;-74
2023/12/16 05:42:50;;;;;;;21.30;10.13;;;;;;;;;;5073046;28;20198;-75
2023/12/16 05:45:16;;;;;;;16.03;8.67;;;;;;;;;;5069477;28;20186;-75
2023/12/16 05:47:42;;;;;;;20.63;8.67;;;;;;;;;;5075809;28;20213;-75
2023/12/16 05:50:08;;;;;;;25.97;10.17;;;;;;;;;;5072411;28;20677;-75
2023/12/16 05:52:36;;;;;;;18.20;8.07;;;;;;;;;;5074009;28;20681;-75
2023/12/16 05:55:02;;;;;;;23.60;9.33;;;;;;;;;;5075027;28;20340;-74
2023/12/16 05:57:28;;;;;;;18.87;7.97;;;;;;;;;;5072883;28;20221;-74
2023/12/16 05:59:54;;;;;;;17.70;7.83;;;;;;;;;;5073904;28;20171;-74
2023/12/16 06:02:20;;;;;;;21.93;9.10;;;;;;;;;;5072302;28;20206;-75
2023/12/16 06:04:46;;;;;;;22.17;9.13;;;;;;;;;;5074914;28;20569;-73
2023/12/16 06:07:12;;;;;;;20.83;7.93;;;;;;;;;;5079035;28;20757;-75
2023/12/16 06:09:38;;;;;;;21.90;9.17;;;;;;;;;;5074783;28;20297;-74
2023/12/16 06:12:05;;;;;;;17.60;8.93;;;;;;;;;;5070737;28;20270;-75
2023/12/16 06:14:31;;;;;;;24.97;8.17;;;;;;;;;;5080302;28;20198;-76
2023/12/16 06:16:57;;;;;;;19.67;8.07;;;;;;;;;;5080690;28;20276;-73
2023/12/16 06:19:24;;;;;;;17.93;7.87;;;;;;;;;;5081607;28;20240;-75
2023/12/16 06:21:50;;;;;;;19.83;7.17;;;;;;;;;;5082405;28;20677;-75
2023/12/16 06:24:16;;;;;;;19.57;7.00;;;;;;;;;;5083008;28;20283;-75
2023/12/16 06:26:42;;;;;;;15.07;7.93;;;;;;;;;;5078190;28;20209;-75
2023/12/16 06:29:08;;;;;;;22.73;8.80;;;;;;;;;;5080727;28;20297;-74
2023/12/16 06:31:34;;;;;;;24.43;8.47;;;;;;;;;;5078792;28;20206;-75
2023/12/16 06:34:00;;;;;;;16.60;7.77;;;;;;;;;;5079115;28;20301;-73
2023/12/16 06:36:26;;;;;;;24.07;8.23;;;;;;;;;;5074388;28;20297;-74
2023/12/16 06:38:52;;;;;;;13.23;6.80;;;;;;;;;;5082026;28;20185;-75
2023/12/16 06:41:18;;;;;;;13.87;6.73;;;;;;;;;;5081089;28;20259;-75
2023/12/16 06:43:44;;;;;;;15.63;7.10;;;;;;;;;;5078876;28;20214;-75
2023/12/16 06:46:10;;;;;;;17.17;8.00;;;;;;;;;;5082731;28;20206;-74
2023/12/16 06:48:36;;;;;;;13.93;6.20;;;;;;;;;;5079476;28;20605;-74
2023/12/16 06:51:03;;;;;;;16.23;8.07;;;;;;;;;;5078173;28;20175;-74
2023/12/16 06:53:30;;;;;;;15.07;6.57;;;;;;;;;;5080439;28;20253;-74
2023/12/16 06:55:56;;;;;;;15.40;6.70;;;;;;;;;;5079241;28;20214;-74
2023/12/16 06:58:22;;;;;;;20.43;6.27;;;;;;;;;;5080315;28;20339;-75
2023/12/16 07:00:48;;;;;;;17.63;6.57;;;;;;;;;;5080571;28;20818;-76
2023/12/16 07:03:15;;;;;;;19.00;6.47;;;;;;;;;;5079897;28;20257;-76
2023/12/16 07:05:41;;;;;;;14.23;6.10;;;;;;;;;;5078144;28;20202;-75
2023/12/16 07:08:07;;;;;;;16.23;6.77;;;;;;;;;;5081554;28;20205;-74
2023/12/16 07:10:33;;;;;;;14.37;5.77;;;;;;;;;;5073660;28;20202;-75
2023/12/16 07:12:59;;;;;;;15.80;6.23;;;;;;;;;;5080889;28;20221;-74
2023/12/16 07:15:25;;;;;;;16.63;6.60;;;;;;;;;;5078860;28;20210;-75
2023/12/16 07:17:51;;;;;;;13.70;5.67;;;;;;;;;;5079957;28;20190;-75
2023/12/16 07:20:17;;;;;;;19.87;6.03;;;;;;;;;;5079619;28;20751;-74
2023/12/16 07:22:43;;;;;;;14.87;6.33;;;;;;;;;;5082832;28;20246;-75
2023/12/16 07:25:09;;;;;;;16.93;6.43;;;;;;;;;;5081802;28;20281;-75
2023/12/16 07:27:35;;;;;;;21.53;6.23;;;;;;;;;;5077863;28;20621;-75
2023/12/16 07:30:01;;;;;;;15.83;5.63;;;;;;;;;;5078479;28;20186;-74
2023/12/16 07:32:27;;;;;;;15.60;6.43;;;;;;;;;;5080895;28;20182;-74
2023/12/16 07:34:53;;;;;;;13.63;6.27;;;;;;;;;;5078062;28;20585;-75
2023/12/16 07:37:19;;;;;;;16.03;5.30;;;;;;;;;;5075596;28;20214;-74
2023/12/16 07:39:45;;;;;;;15.90;6.03;;;;;;;;;;5080795;28;20211;-75
2023/12/16 07:42:11;;;;;;;14.03;5.97;;;;;;;;;;5079307;28;20183;-75
2023/12/16 07:44:37;;;;;;;18.27;5.47;;;;;;;;;;5076916;28;20175;-74
2023/12/16 07:47:03;;;;;;;13.53;5.47;;;;;;;;;;5082136;28;20640;-75
2023/12/16 07:49:29;;;;;;;17.10;5.43;;;;;;;;;;5080921;28;20209;-73
2023/12/16 07:51:57;;;;;;;21.13;5.80;;;;;;;;;;5080560;28;20199;-74
2023/12/16 07:54:24;;;;;;;15.30;5.23;;;;;;;;;;5078677;28;20674;-75
2023/12/16 07:56:50;;;;;;;14.53;5.17;;;;;;;;;;5078679;28;20252;-75
2023/12/16 07:59:16;;;;;;;12.60;4.43;;;;;;;;;;5078543;28;20203;-75
2023/12/16 08:01:42;;;;;;;12.97;5.47;;;;;;;;;;5061500;28;20627;-75
2023/12/16 08:04:08;;;;;;;15.57;5.10;;;;;;;;;;5080846;28;20209;-74
2023/12/16 08:06:34;;;;;;;14.00;5.13;;;;;;;;;;5078732;28;20219;-74
2023/12/16 08:09:00;;;;;;;16.87;5.40;;;;;;;;;;5091583;28;20228;-74
2023/12/16 08:11:26;;;;;;;12.73;6.00;;;;;;;;;;5083197;28;20178;-74
2023/12/16 08:13:53;;;;;;;13.83;5.33;;;;;;;;;;5074927;28;20207;-74
2023/12/16 08:16:19;;;;;;;14.77;4.87;;;;;;;;;;5081428;28;20209;-74
2023/12/16 08:18:45;;;;;;;12.83;5.87;;;;;;;;;;5076595;28;20578;-75
2023/12/16 08:21:11;;;;;;;12.20;4.93;;;;;;;;;;5078697;28;20171;-74
2023/12/16 08:23:37;;;;;;;13.97;5.23;;;;;;;;;;5077223;28;20261;-74
2023/12/16 08:26:09;;;;;;;12.07;6.67;;;;;;;;;;5081031;28;20210;-76
2023/12/16 08:28:37;;;;;;;10.90;4.80;;;;;;;;;;5073878;28;20287;-74
2023/12/16 08:31:03;;;;;;;15.10;5.17;;;;;;;;;;5078452;28;20313;-75
2023/12/16 08:33:29;;;;;;;14.27;4.60;;;;;;;;;;5077661;28;20226;-75
2023/12/16 08:35:56;;;;;;;13.00;4.63;;;;;;;;;;5072884;28;20707;-75
2023/12/16 08:38:22;;;;;;;15.43;4.57;;;;;;;;;;5077950;28;20217;-75
2023/12/16 08:40:49;;;;;;;12.40;4.63;;;;;;;;;;5078219;28;20264;-75
2023/12/16 08:43:15;;;;;;;11.70;4.20;;;;;;;;;;5078404;28;20208;-75
2023/12/16 08:45:41;;;;;;;13.63;4.77;;;;;;;;;;5077334;28;20514;-75
2023/12/16 08:48:07;;;;;;;10.13;4.80;;;;;;;;;;5081247;28;20269;-74
2023/12/16 08:50:34;;;;;;;16.73;4.83;;;;;;;;;;5080024;28;20170;-76
2023/12/16 08:53:00;;;;;;;10.07;4.20;;;;;;;;;;5075789;28;20206;-75
2023/12/16 08:55:27;;;;;;;8.60;4.30;;;;;;;;;;5068284;28;20740;-74
2023/12/16 08:57:53;;;;;;;14.30;4.07;;;;;;;;;;5058329;28;20229;-76
2023/12/16 09:00:19;;;;;;;8.63;3.70;;;;;;;;;;5076865;28;20207;-74
2023/12/16 09:02:45;;;;;;;8.73;3.47;;;;;;;;;;5068208;28;20182;-75
2023/12/16 09:05:12;;;;;;;13.90;4.13;;;;;;;;;;5080466;28;20201;-75
2023/12/16 09:07:38;;;;;;;8.90;3.70;;;;;;;;;;5076025;28;20224;-74
2023/12/16 09:10:04;;;;;;;9.03;3.57;;;;;;;;;;5075319;28;20206;-75
2023/12/16 09:12:30;;;;;;;10.70;3.47;;;;;;;;;;5056528;28;20217;-76
2023/12/16 09:14:56;;;;;;;6.73;3.23;;;;;;;;;;5075470;28;20183;-74
2023/12/16 09:17:22;;;;;;;6.40;3.50;;;;;;;;;;5079184;28;20263;-75
2023/12/16 09:19:48;;;;;;;11.90;3.27;;;;;;;;;;5077270;28;20583;-75
2023/12/16 09:22:16;;;;;;;8.13;2.63;;;;;;;;;;5079753;28;20218;-75
2023/12/16 09:24:42;;;;;;;5.67;2.70;;;;;;;;;;5075907;28;20237;-75
2023/12/16 09:27:08;;;;;;;5.63;2.37;;;;;;;;;;5057988;28;20198;-75
2023/12/16 09:29:34;;;;;;;10.57;3.07;;;;;;;;;;5078470;28;20249;-75
2023/12/16 09:32:00;;;;;;;10.80;2.83;;;;;;;;;;5079564;28;20297;-75
2023/12/16 09:34:26;;;;;;;9.87;3.13;;;;;;;;;;5077525;28;20202;-75
2023/12/16 09:36:52;;;;;;;7.13;2.40;;;;;;;;;;5076020;28;20297;-75
2023/12/16 09:39:19;;;;;;;15.60;3.60;;;;;;;;;;5077794;28;20561;-76
2023/12/16 09:41:46;;;;;;;5.77;2.10;;;;;;;;;;5061491;28;20201;-76
2023/12/16 09:44:15;;;;;;;7.37;2.60;;;;;;;;;;5083582;28;20266;-76
2023/12/16 09:46:41;;;;;;;7.00;2.70;;;;;;;;;;5074079;28;20218;-75
2023/12/16 09:49:07;;;;;;;8.13;2.43;;;;;;;;;;5082387;28;20214;-75
2023/12/16 09:51:33;;;;;;;3.53;1.77;;;;;;;;;;5081946;28;20214;-76
2023/12/16 09:53:59;;;;;;;5.63;2.47;;;;;;;;;;5079854;28;20244;-75
2023/12/16 09:56:26;;;;;;;6.73;2.37;;;;;;;;;;5084558;28;20201;-75
2023/12/16 09:58:53;;;;;;;9.20;2.30;;;;;;;;;;5079122;28;20299;-76
2023/12/16 10:01:19;;;;;;;9.03;3.10;;;;;;;;;;5078541;28;20209;-76
2023/12/16 10:03:46;;;;;;;11.87;2.73;;;;;;;;;;5083251;28;20271;-75
2023/12/16 10:06:12;;;;;;;9.50;2.17;;;;;;;;;;5082659;28;20195;-75
2023/12/16 10:08:40;;;;;;;12.53;2.63;;;;;;;;;;5084037;28;20202;-75
2023/12/16 10:11:06;;;;;;;10.30;2.93;;;;;;;;;;5086629;28;20591;-75
2023/12/16 10:13:33;;;;;;;8.93;2.40;;;;;;;;;;5090434;28;20224;-76
2023/12/16 10:16:15;;;;;;;10.00;3.10;;;;;;;;;;5089663;28;20242;-76
2023/12/16 10:18:41;;;;;;;10.17;2.87;;;;;;;;;;5085315;28;20259;-76
2023/12/16 10:21:07;;;;;;;7.40;2.87;;;;;;;;;;5080217;28;20214;-75
2023/12/16 10:23:33;;;;;;;6.30;2.73;;;;;;;;;;5064699;28;20554;-76
2023/12/16 10:25:59;;;;;;;8.10;2.60;;;;;;;;;;5075872;28;20220;-75
2023/12/16 10:28:27;;;;;;;9.80;2.83;;;;;;;;;;5082538;28;20214;-76
2023/12/16 10:30:53;;;;;;;9.97;2.50;;;;;;;;;;5089022;28;20218;-76
2023/12/16 10:33:22;;;;;;;9.67;2.67;;;;;;;;;;5087909;28;20618;-75
2023/12/16 10:35:48;;;;;;;9.73;2.57;;;;;;;;;;5084650;28;20750;-75
2023/12/16 10:38:15;;;;;;;11.70;2.90;;;;;;;;;;5081624;28;20209;-75
2023/12/16 10:40:42;;;;;;;6.87;2.87;;;;;;;;;;5077900;28;20245;-73
2023/12/16 10:43:08;;;;;;;10.03;2.57;;;;;;;;;;5081985;28;20329;-75
2023/12/16 10:45:35;;;;;;;11.30;2.87;;;;;;;;;;5080400;28;20217;-74
2023/12/16 10:48:02;;;;;;;7.87;2.70;;;;;;;;;;5079505;28;20210;-75
2023/12/16 10:50:29;;;;;;;19.30;3.33;;;;;;;;;;5080645;28;20653;-75
2023/12/16 10:52:56;;;;;;;8.27;2.83;;;;;;;;;;5081059;28;20245;-76
2023/12/16 10:55:40;;;;;;;7.07;2.43;;;;;;;;;;5069659;28;20227;-75
2023/12/16 10:58:06;;;;;;;10.33;3.57;;;;;;;;;;5077145;28;20221;-75
2023/12/16 11:00:34;;;;;;;6.27;2.13;;;;;;;;;;5083074;28;20218;-76
2023/12/16 11:03:17;;;;;;;11.70;3.00;;;;;;;;;;5076177;28;20179;-75
2023/12/16 11:05:46;;;;;;;6.43;2.20;;;;;;;;;;5061584;28;20202;-75
2023/12/16 11:08:13;;;;;;;6.63;2.30;;;;;;;;;;5079609;28;20782;-76
2023/12/16 11:10:39;;;;;;;11.80;2.57;;;;;;;;;;5074173;28;20215;-76
2023/12/16 11:13:05;;;;;;;9.50;2.47;;;;;;;;;;5078696;28;20226;-75
2023/12/16 11:15:33;;;;;;;6.60;2.40;;;;;;;;;;5082220;28;20210;-75
2023/12/16 11:18:01;;;;;;;7.93;2.17;;;;;;;;;;5075230;28;20215;-76
2023/12/16 11:20:44;;;;;;;8.53;2.40;;;;;;;;;;5082784;28;20208;-75
2023/12/16 11:23:11;;;;;;;10.80;2.90;;;;;;;;;;5079747;28;20205;-75
2023/12/16 11:25:37;;;;;;;9.70;2.43;;;;;;;;;;5079629;28;20213;-74
2023/12/16 11:28:04;;;;;;;9.00;2.30;;;;;;;;;;5077279;28;20230;-75
2023/12/16 11:30:32;;;;;;;7.83;2.57;;;;;;;;;;5079135;28;20244;-75
2023/12/16 11:32:59;;;;;;;6.77;2.40;;;;;;;;;;5059200;28;20267;-75
2023/12/16 11:35:45;;;;;;;11.90;2.53;;;;;;;;;;5082483;28;20173;-75
2023/12/16 11:38:31;;;;;;;14.63;2.50;;;;;;;;;;5078286;28;20685;-75
2023/12/16 11:40:58;;;;;;;11.97;2.63;;;;;;;;;;5078121;28;20225;-75
2023/12/16 11:43:44;;;;;;;12.60;2.87;;;;;;;;;;5079135;28;20210;-75
2023/12/16 11:46:30;;;;;;;8.60;2.30;;;;;;;;;;5076549;28;20226;-75
2023/12/16 11:48:56;;;;;;;9.30;2.53;;;;;;;;;;5078501;28;20713;-75
2023/12/16 11:51:22;;;;;;;9.70;2.00;;;;;;;;;;5076027;28;20218;-75
2023/12/16 11:53:50;;;;;;;9.23;2.73;;;;;;;;;;5080243;28;20899;-75
2023/12/16 11:56:15;;;;;;;7.33;2.20;;;;;;;;;;5077706;28;20215;-74
2023/12/16 11:58:41;;;;;;;12.70;3.33;;;;;;;;;;5075001;28;20260;-76
2023/12/16 12:01:08;;;;;;;10.73;2.83;;;;;;;;;;5079119;28;20688;-75
2023/12/16 12:03:34;;;;;;;9.23;2.33;;;;;;;;;;5078446;28;20203;-75
2023/12/16 12:06:00;;;;;;;8.60;2.33;;;;;;;;;;5076372;28;20311;-75
2023/12/16 12:08:26;;;;;;;10.87;2.77;;;;;;;;;;5080551;28;20210;-75
2023/12/16 12:10:52;;;;;;;10.20;2.53;;;;;;;;;;5072398;28;20213;-75
2023/12/16 12:13:18;;;;;;;8.00;2.17;;;;;;;;;;5077671;28;20243;-75
2023/12/16 12:15:44;;;;;;;6.97;2.40;;;;;;;;;;5079341;28;20725;-75
2023/12/16 12:18:11;;;;;;;14.30;2.83;;;;;;;;;;5075223;28;20303;-76
2023/12/16 12:20:37;;;;;;;8.87;2.40;;;;;;;;;;5073395;28;20183;-75
2023/12/16 12:23:03;;;;;;;9.37;2.27;;;;;;;;;;5077170;28;20220;-75
2023/12/16 12:25:29;;;;;;;10.63;2.03;;;;;;;;;;5077429;28;20246;-75
2023/12/16 12:27:55;;;;;;;11.07;3.13;;;;;;;;;;5059892;28;20218;-73
2023/12/16 12:30:21;;;;;;;8.60;2.30;;;;;;;;;;5078381;28;20632;-75
2023/12/16 12:32:47;;;;;;;12.40;2.50;;;;;;;;;;5078865;28;20659;-76
2023/12/16 12:35:13;;;;;;;7.60;2.00;;;;;;;;;;5076535;28;20199;-75
2023/12/16 12:37:40;;;;;;;6.97;1.90;;;;;;;;;;5080214;28;20253;-75
2023/12/16 12:40:28;;;;;;;15.67;3.57;;;;;;;;;;5076566;28;20213;-74
2023/12/16 12:42:55;;;;;;;7.60;2.60;;;;;;;;;;5077680;28;20764;-75
2023/12/16 12:45:27;;;;;;;11.30;2.57;;;;;;;;;;5077895;28;20206;-75
2023/12/16 12:47:53;;;;;;;12.17;2.70;;;;;;;;;;5063856;28;20206;-75
2023/12/16 12:50:23;;;;;;;7.87;2.27;;;;;;;;;;5079084;28;20210;-76
2023/12/16 12:52:49;;;;;;;10.90;2.73;;;;;;;;;;5079778;28;20247;-76
2023/12/16 12:55:17;;;;;;;15.53;3.90;;;;;;;;;;5076461;28;20646;-76
2023/12/16 12:57:45;;;;;;;6.27;2.40;;;;;;;;;;5080350;28;20206;-76
2023/12/16 13:00:11;;;;;;;6.97;2.43;;;;;;;;;;5077653;28;20183;-76
2023/12/16 13:02:37;;;;;;;8.63;2.87;;;;;;;;;;5082108;28;20605;-75
2023/12/16 13:05:03;;;;;;;7.03;2.27;;;;;;;;;;5077893;28;20285;-75
2023/12/16 13:07:29;;;;;;;5.80;2.20;;;;;;;;;;5079676;28;20218;-76
2023/12/16 13:09:55;;;;;;;6.63;1.93;;;;;;;;;;5070254;28;20585;-75
2023/12/16 13:12:21;;;;;;;11.43;2.60;;;;;;;;;;5080849;28;20609;-75
2023/12/16 13:14:47;;;;;;;7.37;2.43;;;;;;;;;;5081656;28;20556;-74
2023/12/16 13:17:13;;;;;;;5.40;2.07;;;;;;;;;;5060630;28;20207;-75
2023/12/16 13:19:40;;;;;;;9.07;2.10;;;;;;;;;;5083183;28;20712;-75
2023/12/16 13:22:07;;;;;;;7.63;2.43;;;;;;;;;;5080971;28;20206;-74
2023/12/16 13:24:33;;;;;;;7.13;2.50;;;;;;;;;;5080676;28;20882;-76
2023/12/16 13:26:59;;;;;;;14.60;2.40;;;;;;;;;;5063243;28;20666;-76
2023/12/16 13:29:25;;;;;;;6.57;1.97;;;;;;;;;;5081581;28;20202;-75
2023/12/16 13:31:53;;;;;;;12.60;3.00;;;;;;;;;;5083676;28;20237;-75
2023/12/16 13:34:19;;;;;;;13.67;2.37;;;;;;;;;;5078157;28;20380;-75
2023/12/16 13:36:45;;;;;;;10.10;2.23;;;;;;;;;;5083546;28;20210;-75
2023/12/16 13:39:11;;;;;;;6.90;2.50;;;;;;;;;;5080286;28;20190;-75
2023/12/16 13:41:37;;;;;;;7.70;2.10;;;;;;;;;;5082615;28;20523;-76
2023/12/16 13:44:03;;;;;;;6.07;2.43;;;;;;;;;;5081826;28;20302;-73
2023/12/16 13:46:29;;;;;;;9.80;2.63;;;;;;;;;;5082672;28;20300;-76
2023/12/16 13:48:55;;;;;;;7.97;2.50;;;;;;;;;;5080755;28;20592;-76
2023/12/16 13:51:21;;;;;;;7.60;2.03;;;;;;;;;;5079817;28;20593;-75
2023/12/16 13:53:47;;;;;;;9.87;2.20;;;;;;;;;;5064407;28;20175;-75
2023/12/16 13:56:13;;;;;;;14.50;2.70;;;;;;;;;;5078825;28;20267;-75
2023/12/16 13:58:40;;;;;;;9.10;2.27;;;;;;;;;;5081990;28;20218;-75
2023/12/16 14:01:06;;;;;;;7.00;2.33;;;;;;;;;;5075763;28;20689;-75
2023/12/16 14:03:32;;;;;;;9.60;2.57;;;;;;;;;;5081683;28;20345;-75
2023/12/16 14:05:58;;;;;;;11.53;2.03;;;;;;;;;;5080788;28;20281;-76
2023/12/16 14:08:24;;;;;;;7.13;2.40;;;;;;;;;;5080775;28;20206;-75
2023/12/16 14:10:50;;;;;;;6.80;2.30;;;;;;;;;;5062885;28;20198;-76
2023/12/16 14:13:17;;;;;;;10.87;2.53;;;;;;;;;;5079151;28;20210;-76
2023/12/16 14:15:43;;;;;;;11.03;2.33;;;;;;;;;;5073860;28;20213;-75
2023/12/16 14:18:09;;;;;;;10.17;2.60;;;;;;;;;;5079416;28;20910;-76
2023/12/16 14:20:35;;;;;;;6.73;2.87;;;;;;;;;;5081048;28;20183;-75
2023/12/16 14:23:01;;;;;;;8.23;2.20;;;;;;;;;;5081905;28;20210;-73
2023/12/16 14:25:27;;;;;;;9.20;2.40;;;;;;;;;;5080364;28;20221;-75
2023/12/16 14:27:53;;;;;;;10.57;2.93;;;;;;;;;;5061911;28;20221;-75